EDDS 200050Z AUTO VRB01KT CAVOK 16/14 Q1022 EDDS 200020Z AUTO VRB01KT CAVOK 17/14 Q1022 EDDS 192350Z AUTO 18004KT 130V230 CAVOK 18/14 Q1023 EDDS 192320Z AUTO 17003KT 120V210 CAVOK 18/14 Q1023 EDDS 192250Z AUTO 13003KT 080V190 CAVOK 18/15 Q1023 EDDS 192220Z AUTO 03006KT 340V070 CAVOK 19/15 Q1024 EDDS 192150Z AUTO 10006KT 060V130 CAVOK 19/15 Q1023 EDDS 192120Z AUTO 07006KT 030V110 CAVOK 20/15 Q1023 EDDS 192050Z AUTO 12003KT 070V180 CAVOK 20/15 Q1022 EDDS 192020Z AUTO VRB02KT CAVOK 22/15 Q1022 EDDS 191950Z AUTO VRB02KT CAVOK 22/15 Q1022 NOSIG EDDS 191920Z AUTO 21004KT 150V290 CAVOK 23/14 Q1021 NOSIG EDDS 191850Z AUTO 27010KT 9999 -SHRA FEW///CB 24/14 Q1021 RETSGR NOSIG EDDS 191820Z AUTO 24013G23KT 200V270 9999 SHGRRA FEW///CB 25/13 Q1020 TEMPO TSRA EDDS 191750Z AUTO 20005KT 160V230 9999 -SHRA VCTS FEW///CB 26/15 Q1020 RESHRA TEMPO TSRA EDDS 191720Z AUTO 20007KT 130V250 9999 SHRA FEW///CB 26/15 Q1020 TEMPO 24015G30KT TSRA EDDS 191650Z AUTO 18007KT 150V240 9999 VCSH FEW///CB 27/15 Q1020 NOSIG EDDS 191620Z AUTO 20008KT 140V260 CAVOK 28/13 Q1020 EDDS 191550Z AUTO VRB05KT CAVOK 30/11 Q1019 NOSIG EDDS 191520Z AUTO 23010KT 170V280 CAVOK 29/15 Q1019 NOSIG EDDS 191450Z AUTO 24009KT 200V270 CAVOK 30/12 Q1019 TEMPO 24015G30KT TSRA EDDS 191420Z AUTO 24007KT 170V300 CAVOK 30/12 Q1019 TEMPO 20015G25KT TSRA EDDS 191350Z AUTO 25009KT 190V290 CAVOK 30/12 Q1020 TEMPO 20015G25KT TSRA EDDS 191320Z AUTO VRB05KT CAVOK 30/12 Q1020 EDDS 191250Z AUTO 26009KT 200V320 CAVOK 30/13 Q1020 EDDS 191220Z AUTO 28008KT 230V320 CAVOK 30/13 Q1020 NOSIG EDDS 191150Z AUTO VRB04G14KT CAVOK 29/12 Q1020 NOSIG EDDS 191120Z AUTO 30005KT 250V330 CAVOK 28/15 Q1021 NOSIG EDDS 191050Z AUTO 26006KT 210V310 CAVOK 28/14 Q1021 NOSIG EDDS 191020Z AUTO VRB05KT CAVOK 27/14 Q1021 EDDS 190950Z AUTO VRB04KT CAVOK 26/15 Q1021 BECMG 23007KT EDDS 190920Z AUTO 09004KT 020V190 CAVOK 26/13 Q1021 NOSIG EDDS 190850Z AUTO 10004KT 050V150 CAVOK 25/13 Q1021 NOSIG EDDS 190820Z AUTO 13004KT 060V220 CAVOK 23/13 Q1022 NOSIG EDDS 190750Z AUTO VRB03KT CAVOK 22/12 Q1022 NOSIG EDDS 190720Z AUTO 16005KT 110V210 CAVOK 21/11 Q1022 NOSIG EDDS 190650Z AUTO 17004KT 100V250 CAVOK 20/11 Q1022 NOSIG EDDS 190620Z AUTO 13003KT 080V220 CAVOK 19/11 Q1022 NOSIG EDDS 190550Z AUTO VRB02KT CAVOK 18/11 Q1021 NOSIG EDDS 190520Z AUTO VRB01KT CAVOK 18/10 Q1021 NOSIG EDDS 190450Z AUTO VRB01KT CAVOK 16/11 Q1021 NOSIG EDDS 190420Z AUTO 06001KT CAVOK 14/09 Q1021 NOSIG EDDS 190350Z AUTO 30001KT CAVOK 13/09 Q1021 EDDS 190320Z AUTO VRB01KT CAVOK 13/09 Q1021 EDDS 190250Z AUTO 00000KT CAVOK 11/08 Q1021 EDDS 190220Z AUTO VRB01KT CAVOK 13/09 Q1021 EDDS 190150Z AUTO VRB01KT CAVOK 14/10 Q1021 EDDS 190120Z AUTO 25001KT CAVOK 14/11 Q1021 EDDS 190050Z AUTO VRB01KT CAVOK 14/11 Q1021 EDDS 190020Z AUTO 30003KT 190V330 CAVOK 14/10 Q1022 EDDS 182350Z AUTO 32003KT 270V360 CAVOK 15/11 Q1022 EDDS 182320Z AUTO VRB01KT CAVOK 15/11 Q1022 EDDS 182250Z AUTO VRB02KT CAVOK 18/11 Q1022 EDDS 182220Z AUTO 10003KT CAVOK 18/11 Q1022 EDDS 182150Z AUTO VRB02KT CAVOK 17/11 Q1022 EDDS 182120Z AUTO 09003KT 060V160 CAVOK 18/12 Q1022 EDDS 182050Z AUTO 08005KT CAVOK 18/12 Q1022 EDDS 182020Z AUTO 09005KT CAVOK 19/12 Q1022 EDDS 181950Z AUTO 09005KT CAVOK 19/12 Q1022 NOSIG EDDS 181920Z AUTO 08007KT CAVOK 20/12 Q1022 NOSIG EDDS 181850Z AUTO 09006KT CAVOK 22/12 Q1022 NOSIG EDDS 181820Z AUTO 09007KT 060V120 CAVOK 23/12 Q1021 NOSIG EDDS 181750Z AUTO 08009KT CAVOK 24/12 Q1021 BECMG 08003KT EDDS 181720Z AUTO 08011KT CAVOK 25/12 Q1021 BECMG 08005KT EDDS 181650Z AUTO 08008KT CAVOK 26/12 Q1021 NOSIG EDDS 181620Z AUTO 08011KT CAVOK 26/11 Q1021 BECMG 11005KT EDDS 181550Z AUTO 09010KT 040V150 CAVOK 26/12 Q1021 BECMG 11005KT EDDS 181520Z AUTO 07010KT CAVOK 26/12 Q1022 BECMG 11005KT EDDS 181450Z AUTO 10006KT 060V190 CAVOK 26/12 Q1022 NOSIG EDDS 181420Z AUTO 07007KT 030V130 CAVOK 26/12 Q1022 NOSIG EDDS 181350Z AUTO 09007KT 050V160 CAVOK 26/10 Q1022 NOSIG EDDS 181320Z AUTO 09007KT 040V170 CAVOK 26/12 Q1022 NOSIG

METAR Messwerte "STUTTGART/ECHTER" EDDS

Zurück zur Übersicht

Ortsname
Ländercode / m ü. NN
Zeit Temperatur Taupunkt Rel.
Luftfeuchte
Luftdruck:
Altimeter
NN
Station
Wind in Beaufort
(Knoten)
Sichtweite
(Meter)
Wolken
(Meter über Grund)
Wettererscheinung
STUTTGART/ECHTER
DE 374
Fr 20.05. 02:50161488 %1022
1022
978
Uml 1 (1)>= 10000Nicht signifikant 
STUTTGART/ECHTER
DE 374
Fr 20.05. 02:20171482 %1022
1022
978
Uml 1 (1)>= 10000Nicht signifikant 
STUTTGART/ECHTER
DE 374
Fr 20.05. 01:50181477 %1023
1023
979
S 2 (4)
SO - SW
>= 10000Nicht signifikant 
STUTTGART/ECHTER
DE 374
Fr 20.05. 01:20181477 %1023
1023
979
S 2 (3)
OSO - SSW
>= 10000Nicht signifikant 
STUTTGART/ECHTER
DE 374
Fr 20.05. 00:50181583 %1023
1023
979
SO 2 (3)
O - S
>= 10000Nicht signifikant 
STUTTGART/ECHTER
DE 374
Fr 20.05. 00:20191578 %1024
1023
979
NNO 2 (6)
NNW - ONO
>= 10000Nicht signifikant 
STUTTGART/ECHTER
DE 374
Do 19.05. 23:50191578 %1023
1022
979
O 2 (6)
ONO - SO
>= 10000Nicht signifikant 
STUTTGART/ECHTER
DE 374
Do 19.05. 23:20201573 %1023
1022
979
ONO 2 (6)
NNO - OSO
>= 10000Nicht signifikant 
STUTTGART/ECHTER
DE 374
Do 19.05. 22:50201573 %1022
1021
978
OSO 2 (3)
ONO - S
>= 10000Nicht signifikant 
STUTTGART/ECHTER
DE 374
Do 19.05. 22:20221565 %1022
1021
978
Uml 1 (2)>= 10000Nicht signifikant 
STUTTGART/ECHTER
DE 374
Do 19.05. 21:50221565 %1022
1021
978
Uml 1 (2)>= 10000Nicht signifikant 
STUTTGART/ECHTER
DE 374
Do 19.05. 21:20231457 %1021
1020
977
SSW 2 (4)
SSO - WNW
>= 10000Nicht signifikant 
STUTTGART/ECHTER
DE 374
Do 19.05. 20:50241454 %1021
1020
977
W 3 (10)>= 10000 Regen-Schauer (schwach)
STUTTGART/ECHTER
DE 374
Do 19.05. 20:20251347 %1020
1019
976
WSW 4 (13) - 6 (23)
SSW - W
>= 10000 Hagel/Regen-Schauer
Bald zeitweise: Gewitter mit Regen
STUTTGART/ECHTER
DE 374
Do 19.05. 19:50261551 %1020
1018
976
SSW 2 (5)
SSO - SW
>= 10000 Regen-Schauer (schwach)
Bald zeitweise: Gewitter mit Regen
STUTTGART/ECHTER
DE 374
Do 19.05. 19:20261551 %1020
1018
976
SSW 3 (7)
SO - WSW
Bald zeitweise:
WSW 4 (15) - 7 (30)
>= 10000 Regen-Schauer
Bald zeitweise: Gewitter mit Regen
STUTTGART/ECHTER
DE 374
Do 19.05. 18:50271548 %1020
1018
976
S 3 (7)
SSO - WSW
>= 10000  
STUTTGART/ECHTER
DE 374
Do 19.05. 18:20281340 %1020
1018
976
SSW 3 (8)
SO - W
>= 10000Nicht signifikant 
STUTTGART/ECHTER
DE 374
Do 19.05. 17:50301131 %1019
1017
975
Uml 2 (5)>= 10000Nicht signifikant 
STUTTGART/ECHTER
DE 374
Do 19.05. 17:20291543 %1019
1017
975
SW 3 (10)
S - W
>= 10000Nicht signifikant 
STUTTGART/ECHTER
DE 374
Do 19.05. 16:50301233 %1019
1017
975
WSW 3 (9)
SSW - W
Bald zeitweise:
WSW 4 (15) - 7 (30)
>= 10000Nicht signifikant Bald zeitweise: Gewitter mit Regen
STUTTGART/ECHTER
DE 374
Do 19.05. 16:20301233 %1019
1017
975
WSW 3 (7)
S - WNW
Bald zeitweise:
SSW 4 (15) - 6 (25)
>= 10000Nicht signifikant Bald zeitweise: Gewitter mit Regen
STUTTGART/ECHTER
DE 374
Do 19.05. 15:50301233 %1020
1018
976
WSW 3 (9)
S - WNW
Bald zeitweise:
SSW 4 (15) - 6 (25)
>= 10000Nicht signifikant Bald zeitweise: Gewitter mit Regen
STUTTGART/ECHTER
DE 374
Do 19.05. 15:20301233 %1020
1018
976
Uml 2 (5)>= 10000Nicht signifikant 
STUTTGART/ECHTER
DE 374
Do 19.05. 14:50301335 %1020
1018
976
W 3 (9)
SSW - NW
>= 10000Nicht signifikant 
STUTTGART/ECHTER
DE 374
Do 19.05. 14:20301335 %1020
1018
976
W 3 (8)
SW - NW
>= 10000Nicht signifikant 
STUTTGART/ECHTER
DE 374
Do 19.05. 13:50291235 %1020
1018
976
Uml 2 (4) - 4 (14)>= 10000Nicht signifikant 
STUTTGART/ECHTER
DE 374
Do 19.05. 13:20281545 %1021
1019
977
WNW 2 (5)
WSW - NNW
>= 10000Nicht signifikant 
STUTTGART/ECHTER
DE 374
Do 19.05. 12:50281442 %1021
1019
977
W 2 (6)
SSW - NW
>= 10000Nicht signifikant 
STUTTGART/ECHTER
DE 374
Do 19.05. 12:20271445 %1021
1019
977
Uml 2 (5)>= 10000Nicht signifikant 
STUTTGART/ECHTER
DE 374
Do 19.05. 11:50261551 %1021
1019
977
Uml 2 (4)
Bald Übergang zu:
SW 3 (7)
>= 10000Nicht signifikant 
STUTTGART/ECHTER
DE 374
Do 19.05. 11:20261345 %1021
1019
977
O 2 (4)
NNO - S
>= 10000Nicht signifikant 
STUTTGART/ECHTER
DE 374
Do 19.05. 10:50251347 %1021
1020
977
O 2 (4)
NO - SSO
>= 10000Nicht signifikant 
STUTTGART/ECHTER
DE 374
Do 19.05. 10:20231353 %1022
1021
978
SO 2 (4)
ONO - SW
>= 10000Nicht signifikant 
STUTTGART/ECHTER
DE 374
Do 19.05. 09:50221253 %1022
1021
978
Uml 2 (3)>= 10000Nicht signifikant 
STUTTGART/ECHTER
DE 374
Do 19.05. 09:20211153 %1022
1021
978
SSO 2 (5)
OSO - SSW
>= 10000Nicht signifikant 
STUTTGART/ECHTER
DE 374
Do 19.05. 08:50201156 %1022
1021
978
S 2 (4)
O - WSW
>= 10000Nicht signifikant 
STUTTGART/ECHTER
DE 374
Do 19.05. 08:20191160 %1022
1021
978
SO 2 (3)
O - SW
>= 10000Nicht signifikant 
STUTTGART/ECHTER
DE 374
Do 19.05. 07:50181164 %1021
1021
977
Uml 1 (2)>= 10000Nicht signifikant 
STUTTGART/ECHTER
DE 374
Do 19.05. 07:20181059 %1021
1021
977
Uml 1 (1)>= 10000Nicht signifikant 
STUTTGART/ECHTER
DE 374
Do 19.05. 06:50161172 %1021
1021
977
Uml 1 (1)>= 10000Nicht signifikant 
STUTTGART/ECHTER
DE 374
Do 19.05. 06:2014972 %1021
1021
977
ONO 1 (1)>= 10000Nicht signifikant 
STUTTGART/ECHTER
DE 374
Do 19.05. 05:5013977 %1021
1021
977
WNW 1 (1)>= 10000Nicht signifikant 
STUTTGART/ECHTER
DE 374
Do 19.05. 05:2013977 %1021
1021
977
Uml 1 (1)>= 10000Nicht signifikant 
STUTTGART/ECHTER
DE 374
Do 19.05. 04:5011882 %1021
1022
977
Windstill>= 10000Nicht signifikant 
STUTTGART/ECHTER
DE 374
Do 19.05. 04:2013977 %1021
1021
977
Uml 1 (1)>= 10000Nicht signifikant 
STUTTGART/ECHTER
DE 374
Do 19.05. 03:50141077 %1021
1021
977
Uml 1 (1)>= 10000Nicht signifikant 
STUTTGART/ECHTER
DE 374
Do 19.05. 03:20141182 %1021
1021
977
WSW 1 (1)>= 10000Nicht signifikant 
STUTTGART/ECHTER
DE 374
Do 19.05. 02:50141182 %1021
1021
977
Uml 1 (1)>= 10000Nicht signifikant 
STUTTGART/ECHTER
DE 374
Do 19.05. 02:20141077 %1022
1022
978
WNW 2 (3)
S - NNW
>= 10000Nicht signifikant 
STUTTGART/ECHTER
DE 374
Do 19.05. 01:50151177 %1022
1022
978
NW 2 (3)
W - N
>= 10000Nicht signifikant 
STUTTGART/ECHTER
DE 374
Do 19.05. 01:20151177 %1022
1022
978
Uml 1 (1)>= 10000Nicht signifikant 
STUTTGART/ECHTER
DE 374
Do 19.05. 00:50181164 %1022
1022
978
Uml 1 (2)>= 10000Nicht signifikant 
STUTTGART/ECHTER
DE 374
Do 19.05. 00:20181164 %1022
1022
978
O 2 (3)>= 10000Nicht signifikant 
STUTTGART/ECHTER
DE 374
Mi 18.05. 23:50171168 %1022
1022
978
Uml 1 (2)>= 10000Nicht signifikant 
STUTTGART/ECHTER
DE 374
Mi 18.05. 23:20181268 %1022
1022
978
O 2 (3)
ONO - SSO
>= 10000Nicht signifikant 
STUTTGART/ECHTER
DE 374
Mi 18.05. 22:50181268 %1022
1022
978
O 2 (5)>= 10000Nicht signifikant 
STUTTGART/ECHTER
DE 374
Mi 18.05. 22:20191264 %1022
1021
978
O 2 (5)>= 10000Nicht signifikant 
STUTTGART/ECHTER
DE 374
Mi 18.05. 21:50191264 %1022
1021
978
O 2 (5)>= 10000Nicht signifikant 
STUTTGART/ECHTER
DE 374
Mi 18.05. 21:20201260 %1022
1021
978
O 3 (7)>= 10000Nicht signifikant 
STUTTGART/ECHTER
DE 374
Mi 18.05. 20:50221253 %1022
1021
978
O 2 (6)>= 10000Nicht signifikant 
STUTTGART/ECHTER
DE 374
Mi 18.05. 20:20231250 %1021
1020
977
O 3 (7)
ONO - OSO
>= 10000Nicht signifikant 
STUTTGART/ECHTER
DE 374
Mi 18.05. 19:50241247 %1021
1020
977
O 3 (9)
Bald Übergang zu:
O 2 (3)
>= 10000Nicht signifikant 
STUTTGART/ECHTER
DE 374
Mi 18.05. 19:20251244 %1021
1020
977
O 4 (11)
Bald Übergang zu:
O 2 (5)
>= 10000Nicht signifikant 
STUTTGART/ECHTER
DE 374
Mi 18.05. 18:50261242 %1021
1019
977
O 3 (8)>= 10000Nicht signifikant 
STUTTGART/ECHTER
DE 374
Mi 18.05. 18:20261139 %1021
1019
977
O 4 (11)
Bald Übergang zu:
OSO 2 (5)
>= 10000Nicht signifikant 
STUTTGART/ECHTER
DE 374
Mi 18.05. 17:50261242 %1021
1019
977
O 3 (10)
NO - SSO
Bald Übergang zu:
OSO 2 (5)
>= 10000Nicht signifikant 
STUTTGART/ECHTER
DE 374
Mi 18.05. 17:20261242 %1022
1020
978
ONO 3 (10)
Bald Übergang zu:
OSO 2 (5)
>= 10000Nicht signifikant 
STUTTGART/ECHTER
DE 374
Mi 18.05. 16:50261242 %1022
1020
978
O 2 (6)
ONO - S
>= 10000Nicht signifikant 
STUTTGART/ECHTER
DE 374
Mi 18.05. 16:20261242 %1022
1020
978
ONO 3 (7)
NNO - SO
>= 10000Nicht signifikant 
STUTTGART/ECHTER
DE 374
Mi 18.05. 15:50261037 %1022
1020
978
O 3 (7)
NO - SSO
>= 10000Nicht signifikant 
STUTTGART/ECHTER
DE 374
Mi 18.05. 15:20261242 %1022
1020
978
O 3 (7)
NO - S
>= 10000Nicht signifikant 

Altimeter: Einstellung am Altimeter (Höhenmesser), die Höhe 0 muss auf diesen Luftdruckwert zeigen, damit das Gerät die Stationshöhe richtig anzeigt.

NN: Luftdruck reduziert auf "Normal Null", auf Meereshöhe, dieser von der Temperatur abhängige Wert wird bisweilen unkorrekt einfach als "Luftdruck" bezeichnet. Eigentlich nur eine fiktive Größe, die es erlaubt, Stationen auf unterschiedlichen Höhen miteinander zu vergleichen.

Station: Realer Luftdruck an der Station.